Time;durP1;ratioP1;P1;durP2;ratioP2;P2;SDS_P1;SDS_P2;PMS_P1;PMS_P2;Temp;Humidity;BMP_temperature;BMP_pressure;BME280_temperature;BME280_humidity;BME280_pressure;Samples;Min_cycle;Max_cycle;Signal;HPM_P1;HPM_P2
2022/05/08 00:00:11;;;;;;;10.07;4.15;;;;;;;12.39;85.12;102440.75;5274246;28;20032;-64
2022/05/08 00:02:44;;;;;;;8.68;4.28;;;;;;;12.33;85.65;102439.31;5273832;28;22192;-64
2022/05/08 00:05:15;;;;;;;12.77;5.28;;;;;;;12.39;85.96;102454.13;5275602;28;20040;-64
2022/05/08 00:07:46;;;;;;;7.82;4.35;;;;;;;12.32;86.01;102445.63;5272791;28;20838;-64
2022/05/08 00:10:18;;;;;;;7.70;4.50;;;;;;;12.33;86.36;102439.31;5273365;28;20500;-65
2022/05/08 00:12:49;;;;;;;9.18;4.95;;;;;;;12.29;86.39;102435.09;5274838;28;20040;-64
2022/05/08 00:15:20;;;;;;;9.23;5.15;;;;;;;12.27;86.38;102428.97;5275376;28;20056;-64
2022/05/08 00:17:51;;;;;;;10.77;4.88;;;;;;;12.30;87.66;102426.97;5271932;28;20139;-64
2022/05/08 00:20:23;;;;;;;8.00;5.13;;;;;;;12.23;87.42;102425.59;5272815;28;20043;-64
2022/05/08 00:22:54;;;;;;;7.47;4.68;;;;;;;12.24;86.67;102438.03;5272161;28;20117;-64
2022/05/08 00:25:26;;;;;;;10.02;5.82;;;;;;;12.18;87.22;102427.69;5273802;28;20032;-65
2022/05/08 00:27:57;;;;;;;13.25;5.45;;;;;;;12.18;87.77;102429.50;5274917;28;20029;-64
2022/05/08 00:30:29;;;;;;;12.10;5.40;;;;;;;12.20;87.69;102433.81;5274603;28;20020;-65
2022/05/08 00:33:00;;;;;;;9.00;5.22;;;;;;;12.18;88.37;102427.69;5274322;28;20029;-64
2022/05/08 00:35:31;;;;;;;9.45;5.07;;;;;;;12.15;88.12;102435.88;5274331;28;20201;-64
2022/05/08 00:38:03;;;;;;;11.95;5.95;;;;;;;12.21;88.61;102432.84;5272182;28;20032;-65
2022/05/08 00:40:35;;;;;;;10.98;5.82;;;;;;;12.11;88.80;102427.16;5272855;28;20178;-64
2022/05/08 00:43:35;;;;;;;8.30;5.75;;;;;;;12.17;88.22;102431.31;5266325;28;20055;-64
2022/05/08 00:46:11;;;;;;;10.95;5.88;;;;;;;12.07;88.79;102435.47;5273543;28;20028;-64
2022/05/08 00:48:43;;;;;;;11.43;6.38;;;;;;;12.05;88.35;102434.69;5272986;28;20454;-64
2022/05/08 00:51:16;;;;;;;11.15;6.45;;;;;;;12.03;88.90;102439.28;5274008;28;20044;-64
2022/05/08 00:53:50;;;;;;;8.95;6.57;;;;;;;11.98;89.04;102438.66;5270172;28;20112;-64
2022/05/08 00:56:21;;;;;;;11.43;6.15;;;;;;;11.96;89.23;102439.59;5270340;28;20036;-64
2022/05/08 00:58:54;;;;;;;11.73;5.95;;;;;;;12.01;89.49;102441.19;5272550;28;20036;-64
2022/05/08 01:01:25;;;;;;;12.18;6.60;;;;;;;11.92;88.88;102442.56;5275142;28;20390;-64
2022/05/08 01:03:56;;;;;;;10.77;6.50;;;;;;;12.02;89.76;102442.88;5271396;28;20088;-64
2022/05/08 01:06:30;;;;;;;11.48;6.88;;;;;;;11.96;89.44;102450.31;5271941;28;20028;-64
2022/05/08 01:09:02;;;;;;;13.32;6.90;;;;;;;11.96;91.04;102444.97;5274885;28;20047;-64
2022/05/08 01:11:33;;;;;;;14.25;7.45;;;;;;;11.90;89.63;102445.31;5275115;28;20563;-64
2022/05/08 01:14:05;;;;;;;9.57;6.65;;;;;;;11.85;89.68;102455.41;5270453;28;20045;-64
2022/05/08 01:16:36;;;;;;;14.52;8.02;;;;;;;11.82;88.88;102452.88;5275079;28;20423;-64
2022/05/08 01:19:08;;;;;;;11.88;7.93;;;;;;;11.80;89.90;102448.56;5273035;28;20510;-64
2022/05/08 01:21:43;;;;;;;12.85;8.05;;;;;;;11.80;89.49;102448.56;5278449;28;20024;-64
2022/05/08 01:24:20;;;;;;;11.43;7.38;;;;;;;11.70;88.99;102456.25;5277577;28;20090;-64
2022/05/08 01:26:52;;;;;;;13.93;8.10;;;;;;;11.72;89.75;102451.69;5277391;28;20406;-64
2022/05/08 01:29:23;;;;;;;14.93;7.82;;;;;;;11.71;89.85;102453.47;5276644;28;20027;-64
2022/05/08 01:31:54;;;;;;;14.80;8.15;;;;;;;11.66;89.63;102455.56;5276532;28;20559;-64
2022/05/08 01:34:25;;;;;;;13.38;8.23;;;;;;;11.66;89.97;102460.00;5275055;28;20559;-64
2022/05/08 01:36:57;;;;;;;16.58;8.73;;;;;;;11.67;91.23;102454.59;5277286;28;20028;-64
2022/05/08 01:39:28;;;;;;;12.50;8.38;;;;;;;11.68;91.00;102455.47;5277507;28;20028;-64
2022/05/08 01:41:59;;;;;;;11.60;7.50;;;;;;;11.61;89.93;102456.75;5276666;28;20042;-64
2022/05/08 01:44:30;;;;;;;13.82;8.45;;;;;;;11.58;90.04;102463.09;5274278;28;20032;-65
2022/05/08 01:49:52;;;;;;;12.13;8.77;;;;;;;11.53;90.56;102459.84;5277088;28;20036;-64
2022/05/08 01:52:25;;;;;;;13.98;8.05;;;;;;;11.47;89.17;102463.72;5278458;28;20032;-64
2022/05/08 01:54:56;;;;;;;12.93;8.80;;;;;;;11.48;90.04;102464.56;5275725;28;20064;-64
2022/05/08 01:57:28;;;;;;;12.05;8.93;;;;;;;11.45;89.54;102470.94;5277300;28;20036;-63
2022/05/08 01:59:59;;;;;;;17.38;8.73;;;;;;;11.44;89.40;102469.22;5277270;28;20078;-63
2022/05/08 02:02:31;;;;;;;13.13;9.15;;;;;;;11.37;89.86;102473.16;5276024;28;20056;-63
2022/05/08 02:05:04;;;;;;;13.02;8.52;;;;;;;11.38;89.60;102474.91;5276274;28;20020;-64
2022/05/08 02:07:35;;;;;;;15.13;9.02;;;;;;;11.35;89.53;102467.03;5276788;28;20872;-63
2022/05/08 02:10:07;;;;;;;12.93;8.98;;;;;;;11.35;90.13;102475.03;5274971;28;20036;-64
2022/05/08 02:12:38;;;;;;;14.60;9.02;;;;;;;11.24;89.79;102478.31;5277562;28;20055;-63
2022/05/08 02:15:12;;;;;;;15.65;9.57;;;;;;;11.25;90.55;102485.38;5275891;28;20049;-63
2022/05/08 02:17:44;;;;;;;15.23;9.50;;;;;;;11.25;90.99;102480.03;5275714;28;20031;-63
2022/05/08 02:20:15;;;;;;;16.73;9.75;;;;;;;11.19;90.65;102480.34;5276140;28;20457;-64
2022/05/08 02:22:47;;;;;;;16.40;9.65;;;;;;;11.12;90.77;102476.28;5269465;28;20029;-63
2022/05/08 02:25:18;;;;;;;14.15;9.50;;;;;;;11.13;91.49;102481.53;5274875;28;20031;-63
2022/05/08 02:27:51;;;;;;;14.75;9.98;;;;;;;11.00;91.02;102488.47;5275790;28;20367;-63
2022/05/08 02:30:23;;;;;;;15.82;10.27;;;;;;;10.95;91.67;102482.53;5274957;28;20027;-63
2022/05/08 02:32:55;;;;;;;17.48;9.93;;;;;;;10.97;92.26;102481.50;5275918;28;20036;-63
2022/05/08 02:35:26;;;;;;;14.82;9.52;;;;;;;10.89;92.07;102489.03;5274711;28;21682;-64
2022/05/08 02:37:57;;;;;;;17.20;10.20;;;;;;;10.86;92.19;102485.66;5274755;28;20040;-63
2022/05/08 02:40:29;;;;;;;18.02;10.63;;;;;;;10.83;93.28;102477.78;5276983;28;20024;-63
2022/05/08 02:43:01;;;;;;;15.27;10.25;;;;;;;10.85;93.50;102483.91;5276344;28;20034;-63
2022/05/08 02:45:32;;;;;;;17.38;9.85;;;;;;;10.81;93.07;102483.22;5269187;28;20410;-63
2022/05/08 02:48:03;;;;;;;15.52;10.57;;;;;;;10.92;93.70;102486.19;5276659;28;20033;-63
2022/05/08 02:50:34;;;;;;;17.65;9.75;;;;;;;10.85;92.92;102489.25;5274270;28;20465;-63
2022/05/08 02:53:06;;;;;;;15.43;10.00;;;;;;;10.87;93.15;102479.34;5275411;28;20119;-63
2022/05/08 02:58:33;;;;;;;14.00;9.98;;;;;;;10.82;92.46;102489.44;5274634;28;20044;-63
2022/05/08 03:01:07;;;;;;;16.02;9.38;;;;;;;10.87;92.42;102493.56;5275596;28;20457;-63
2022/05/08 03:03:39;;;;;;;18.02;9.30;;;;;;;10.75;92.07;102488.88;5272279;28;20440;-63
2022/05/08 03:06:13;;;;;;;16.77;10.23;;;;;;;10.74;92.73;102496.03;5273436;28;20031;-63
2022/05/08 03:08:44;;;;;;;16.63;9.95;;;;;;;10.71;92.39;102489.97;5275316;28;20036;-63
2022/05/08 03:11:28;;;;;;;16.35;10.23;;;;;;;10.62;92.36;102491.28;5275493;28;20039;-63
2022/05/08 03:14:00;;;;;;;16.90;10.25;;;;;;;10.62;92.96;102488.63;5270577;28;20048;-63
2022/05/08 03:16:31;;;;;;;18.05;10.63;;;;;;;10.62;92.81;102485.94;5274928;28;20051;-63
2022/05/08 03:19:03;;;;;;;18.40;10.80;;;;;;;10.57;92.17;102494.19;5275637;28;20031;-63
2022/05/08 03:21:34;;;;;;;15.93;11.07;;;;;;;10.60;92.25;102482.50;5274749;28;20055;-63
2022/05/08 03:24:07;;;;;;;19.65;10.75;;;;;;;10.58;91.74;102484.38;5276276;28;20026;-63
2022/05/08 03:26:38;;;;;;;17.50;10.02;;;;;;;10.61;91.19;102486.03;5273894;28;20036;-63
2022/05/08 03:29:09;;;;;;;15.93;9.60;;;;;;;10.57;91.36;102488.84;5275650;28;20067;-63
2022/05/08 03:31:40;;;;;;;17.08;9.10;;;;;;;10.63;91.23;102484.16;5274707;28;20490;-63
2022/05/08 03:34:12;;;;;;;18.38;10.23;;;;;;;10.61;91.37;102486.03;5274836;28;20433;-63
2022/05/08 03:36:44;;;;;;;15.05;9.15;;;;;;;10.56;90.01;102492.44;5272683;28;20290;-63
2022/05/08 03:39:15;;;;;;;19.92;9.20;;;;;;;10.53;90.11;102487.28;5274468;28;20111;-63
2022/05/08 03:41:46;;;;;;;16.98;8.13;;;;;;;10.46;88.92;102491.19;5275271;28;20255;-64
2022/05/08 03:44:17;;;;;;;15.02;8.10;;;;;;;10.46;88.54;102485.84;5275705;28;20107;-63
2022/05/08 03:46:49;;;;;;;14.95;8.07;;;;;;;10.55;89.15;102487.22;5273027;28;20024;-63
2022/05/08 03:49:22;;;;;;;14.10;7.72;;;;;;;10.39;87.49;102481.75;5275513;28;20055;-63
2022/05/08 03:51:54;;;;;;;14.73;6.95;;;;;;;10.33;86.47;102493.59;5275719;28;20024;-63
2022/05/08 03:54:25;;;;;;;17.42;7.43;;;;;;;10.29;86.69;102489.31;5275640;28;20506;-63
2022/05/08 03:56:56;;;;;;;15.13;7.03;;;;;;;10.28;86.27;102486.72;5273410;28;20032;-63
2022/05/08 03:59:27;;;;;;;13.77;6.75;;;;;;;10.27;85.73;102491.19;5275292;28;20245;-63
2022/05/08 04:01:59;;;;;;;14.85;6.78;;;;;;;10.26;84.86;102492.16;5273262;28;20116;-63
2022/05/08 04:04:30;;;;;;;14.82;6.07;;;;;;;10.29;85.64;102492.00;5275709;28;20024;-63
2022/05/08 04:07:02;;;;;;;16.90;6.47;;;;;;;10.28;85.32;102502.72;5270831;28;20035;-63
2022/05/08 04:09:33;;;;;;;19.08;6.63;;;;;;;10.20;84.34;102503.09;5271723;28;20028;-63
2022/05/08 04:12:04;;;;;;;21.50;6.35;;;;;;;10.28;85.50;102505.41;5275960;28;20067;-63
2022/05/08 04:14:36;;;;;;;18.15;6.30;;;;;;;10.17;84.74;102508.59;5274848;28;20040;-63
2022/05/08 04:17:07;;;;;;;15.32;6.20;;;;;;;10.11;84.21;102509.75;5274711;28;20462;-63
2022/05/08 04:19:38;;;;;;;18.55;6.50;;;;;;;10.08;84.60;102512.56;5273350;28;20039;-63
2022/05/08 04:24:59;;;;;;;17.73;6.57;;;;;;;9.98;82.75;102512.13;5276148;28;20032;-63
2022/05/08 04:27:30;;;;;;;19.02;6.18;;;;;;;10.00;82.95;102514.72;5274510;28;20025;-63
2022/05/08 04:30:03;;;;;;;18.85;5.97;;;;;;;9.99;83.47;102516.53;5272816;28;20020;-64
2022/05/08 04:32:34;;;;;;;16.67;5.47;;;;;;;9.95;83.26;102511.41;5273596;28;20494;-63
2022/05/08 04:35:06;;;;;;;15.25;5.75;;;;;;;9.94;84.45;102510.56;5275196;28;20028;-63
2022/05/08 04:37:37;;;;;;;18.58;5.78;;;;;;;9.95;83.99;102511.41;5271442;28;20110;-63
2022/05/08 04:40:08;;;;;;;18.33;5.80;;;;;;;9.97;84.26;102514.88;5274989;28;20056;-64
2022/05/08 04:42:39;;;;;;;19.08;5.43;;;;;;;9.91;84.28;102516.03;5275206;28;20021;-64
2022/05/08 04:45:11;;;;;;;16.33;5.63;;;;;;;9.90;84.42;102516.13;5273578;28;20028;-64
2022/05/08 04:47:42;;;;;;;18.58;5.60;;;;;;;9.95;85.18;102520.28;5273064;28;20471;-64
2022/05/08 04:50:13;;;;;;;18.63;5.43;;;;;;;9.95;84.64;102530.97;5274859;28;20395;-64
2022/05/08 04:52:44;;;;;;;21.15;5.18;;;;;;;9.93;84.23;102529.28;5277181;28;20027;-64
2022/05/08 04:55:16;;;;;;;15.55;4.80;;;;;;;9.84;83.80;102529.72;5278258;28;20385;-64
2022/05/08 04:57:47;;;;;;;20.88;5.45;;;;;;;9.82;84.82;102528.00;5274013;28;20041;-64
2022/05/08 05:00:19;;;;;;;17.63;4.95;;;;;;;9.77;84.92;102539.81;5278021;28;20029;-64
2022/05/08 05:02:50;;;;;;;23.00;6.15;;;;;;;9.88;85.31;102539.31;5277372;28;20398;-64
2022/05/08 05:05:21;;;;;;;17.83;5.68;;;;;;;9.88;85.26;102547.31;5278166;28;20044;-64
2022/05/08 05:07:53;;;;;;;18.90;5.63;;;;;;;9.89;86.66;102539.22;5276412;28;20081;-64
2022/05/08 05:10:24;;;;;;;19.35;5.32;;;;;;;9.82;85.03;102546.66;5278635;28;20044;-64
2022/05/08 05:12:55;;;;;;;18.02;5.50;;;;;;;9.88;85.78;102550.84;5275958;28;20494;-64
2022/05/08 05:15:27;;;;;;;21.13;5.40;;;;;;;9.91;87.03;102550.69;5275990;28;20052;-64
2022/05/08 05:18:01;;;;;;;19.23;5.82;;;;;;;9.85;85.20;102552.78;5277685;28;20478;-64
2022/05/08 05:20:32;;;;;;;21.80;6.20;;;;;;;9.84;85.61;102556.38;5277961;28;20427;-64
2022/05/08 05:23:04;;;;;;;20.13;5.30;;;;;;;9.90;85.11;102562.28;5272376;28;20115;-64
2022/05/08 05:25:35;;;;;;;20.75;6.25;;;;;;;9.93;85.46;102558.59;5272843;28;20036;-64
2022/05/08 05:28:06;;;;;;;16.85;5.32;;;;;;;9.98;86.99;102557.47;5277187;28;20028;-64
2022/05/08 05:30:38;;;;;;;22.73;6.38;;;;;;;9.95;85.69;102562.06;5277885;28;20032;-64
2022/05/08 05:33:15;;;;;;;16.80;4.97;;;;;;;10.05;86.09;102566.06;5276773;28;20398;-64
2022/05/08 05:35:46;;;;;;;20.48;5.97;;;;;;;10.10;86.68;102573.84;5270447;28;20028;-64
2022/05/08 05:38:18;;;;;;;20.88;5.28;;;;;;;10.08;84.78;102573.03;5277834;28;20036;-64
2022/05/08 05:40:49;;;;;;;17.08;5.53;;;;;;;10.19;85.50;102584.06;5275999;28;20113;-64
2022/05/08 05:43:20;;;;;;;20.98;5.05;;;;;;;10.16;84.64;102587.75;5275758;28;20033;-64
2022/05/08 05:47:49;;;;;;;20.80;5.88;;;;;;;10.26;85.79;102589.97;5270974;28;20060;-64
2022/05/08 05:48:43;;;;;;;19.90;5.68;;;;;;;10.27;84.49;102591.72;5277420;28;20039;-64
2022/05/08 05:51:14;;;;;;;22.33;6.53;;;;;;;10.37;86.53;102601.94;5276067;28;20489;-64
2022/05/08 05:53:45;;;;;;;18.15;4.80;;;;;;;10.41;82.68;102589.28;5273509;28;20482;-64
2022/05/08 05:56:16;;;;;;;19.02;4.75;;;;;;;10.44;82.99;102599.81;5275449;28;20518;-64
2022/05/08 05:58:48;;;;;;;17.15;4.55;;;;;;;10.48;82.42;102608.53;5277435;28;20535;-64
2022/05/08 06:01:19;;;;;;;17.00;5.10;;;;;;;10.54;82.18;102598.44;5276358;28;20109;-64
2022/05/08 06:03:50;;;;;;;17.67;5.15;;;;;;;10.51;81.23;102609.28;5276454;28;20039;-64
2022/05/08 06:06:22;;;;;;;16.95;5.30;;;;;;;10.48;79.45;102609.41;5275869;28;20036;-64
2022/05/08 06:08:53;;;;;;;18.70;4.55;;;;;;;10.54;79.65;102618.91;5276736;28;20023;-64
2022/05/08 06:11:24;;;;;;;19.50;5.05;;;;;;;10.61;80.41;102615.03;5277515;28;20044;-64
2022/05/08 06:13:56;;;;;;;19.48;4.88;;;;;;;10.65;79.11;102619.28;5276847;28;20567;-64
2022/05/08 06:16:27;;;;;;;20.85;5.32;;;;;;;10.73;79.09;102625.09;5275854;28;20020;-64
2022/05/08 06:18:58;;;;;;;16.20;4.95;;;;;;;10.85;79.82;102625.44;5273904;28;20032;-64
2022/05/08 06:21:30;;;;;;;20.15;4.82;;;;;;;10.85;79.54;102626.31;5275416;28;20066;-64
2022/05/08 06:24:01;;;;;;;19.33;5.07;;;;;;;10.88;78.15;102625.31;5274136;28;20036;-64
2022/05/08 06:26:32;;;;;;;14.55;4.30;;;;;;;10.92;77.67;102637.56;5277505;28;20070;-64
2022/05/08 06:29:04;;;;;;;19.90;4.55;;;;;;;10.92;76.30;102635.75;5276962;28;20115;-64
2022/05/08 06:31:35;;;;;;;19.88;4.78;;;;;;;11.03;78.44;102626.34;5276127;28;20074;-64
2022/05/08 06:34:08;;;;;;;20.30;5.28;;;;;;;11.14;80.08;102632.88;5269157;28;20353;-64
2022/05/08 06:36:39;;;;;;;20.05;4.70;;;;;;;11.24;77.18;102624.38;5274937;28;20129;-64
2022/05/08 06:39:10;;;;;;;24.20;5.22;;;;;;;11.42;78.89;102631.47;5276973;28;20119;-64
2022/05/08 06:41:42;;;;;;;22.00;4.75;;;;;;;11.46;77.67;102638.38;5276520;28;20028;-64
2022/05/08 06:44:13;;;;;;;20.70;4.68;;;;;;;11.53;75.81;102645.16;5275595;28;20603;-64
2022/05/08 06:46:44;;;;;;;18.50;4.80;;;;;;;11.56;73.30;102650.34;5270111;28;20102;-64
2022/05/08 06:49:15;;;;;;;21.10;4.68;;;;;;;11.66;73.52;102637.38;5277153;28;20020;-64
2022/05/08 06:51:48;;;;;;;17.42;4.30;;;;;;;11.76;77.79;102643.09;5275041;28;20497;-64
2022/05/08 06:54:19;;;;;;;23.17;4.40;;;;;;;11.83;73.74;102644.50;5275977;28;20028;-65
2022/05/08 06:56:52;;;;;;;17.88;4.72;;;;;;;11.86;73.38;102641.66;5273564;28;20027;-65
2022/05/08 07:02:13;;;;;;;16.73;4.07;;;;;;;11.81;70.32;102643.69;5274236;28;20040;-65
2022/05/08 07:04:44;;;;;;;16.63;4.47;;;;;;;11.81;72.16;102642.84;5270700;28;20040;-64
2022/05/08 07:07:15;;;;;;;13.93;4.95;;;;;;;11.77;70.31;102647.47;5276391;28;20041;-64
2022/05/08 07:09:46;;;;;;;16.63;4.40;;;;;;;11.88;71.73;102652.28;5276030;28;20407;-65
2022/05/08 07:12:18;;;;;;;19.25;4.53;;;;;;;11.89;72.30;102651.31;5274845;28;20470;-64
2022/05/08 07:14:50;;;;;;;14.82;4.13;;;;;;;11.85;71.47;102652.41;5274727;28;20051;-64
2022/05/08 07:17:24;;;;;;;19.55;3.95;;;;;;;11.74;70.97;102650.34;5274758;28;20111;-64
2022/05/08 07:19:56;;;;;;;16.15;4.57;;;;;;;11.80;71.70;102658.03;5274411;28;20040;-64
2022/05/08 07:22:27;;;;;;;18.98;5.07;;;;;;;11.67;70.70;102660.47;5274199;28;20040;-64
2022/05/08 07:24:58;;;;;;;20.13;4.18;;;;;;;11.68;71.60;102659.53;5273958;28;20548;-64
2022/05/08 07:27:32;;;;;;;19.08;5.20;;;;;;;11.65;72.02;102659.69;5275321;28;20411;-64
2022/05/08 07:30:04;;;;;;;18.85;4.10;;;;;;;11.53;70.84;102660.34;5276173;28;20398;-64
2022/05/08 07:32:35;;;;;;;16.30;4.50;;;;;;;11.56;72.16;102666.38;5273232;28;20032;-64
2022/05/08 07:37:57;;;;;;;15.75;4.55;;;;;;;11.53;71.08;102663.88;5275459;28;20432;-64
2022/05/08 07:40:29;;;;;;;19.00;4.28;;;;;;;11.64;72.69;102663.31;5274783;28;20041;-64
2022/05/08 07:43:01;;;;;;;20.70;4.95;;;;;;;11.73;71.56;102667.31;5273573;28;20032;-64
2022/05/08 07:45:32;;;;;;;20.80;4.60;;;;;;;11.71;70.99;102663.84;5275879;28;20020;-64
2022/05/08 07:48:04;;;;;;;15.82;4.50;;;;;;;11.78;73.32;102667.94;5274645;28;20044;-64
2022/05/08 07:50:35;;;;;;;21.48;5.15;;;;;;;11.87;70.57;102672.81;5272448;28;20429;-64
2022/05/08 07:53:07;;;;;;;19.42;5.63;;;;;;;11.92;71.83;102680.63;5273298;28;20039;-64
2022/05/08 07:55:39;;;;;;;17.67;5.38;;;;;;;11.90;70.22;102672.66;5274250;28;20031;-64
2022/05/08 07:58:11;;;;;;;20.23;4.68;;;;;;;11.91;70.28;102670.88;5275775;28;20025;-64
2022/05/08 08:00:43;;;;;;;16.13;4.93;;;;;;;12.00;70.35;102672.19;5273827;28;20129;-64
2022/05/08 08:03:14;;;;;;;16.95;5.35;;;;;;;12.11;70.08;102681.34;5273275;28;20484;-65
2022/05/08 08:05:45;;;;;;;18.85;4.53;;;;;;;12.13;70.03;102689.31;5275166;28;20693;-64
2022/05/08 08:08:17;;;;;;;16.27;4.68;;;;;;;12.14;71.74;102680.34;5274330;28;20526;-64
2022/05/08 08:10:52;;;;;;;20.10;4.55;;;;;;;12.28;69.37;102682.28;5272891;28;20055;-64
2022/05/08 08:13:24;;;;;;;;;;;;;;;12.27;68.57;102680.53;5273965;28;20434;-64
2022/05/08 08:15:55;;;;;;;16.80;4.22;;;;;;;12.22;67.45;102680.78;5274632;28;19927;-64
2022/05/08 08:18:27;;;;;;;17.60;4.40;;;;;;;12.28;67.64;102683.13;5275637;28;20064;-64
2022/05/08 08:20:58;;;;;;;15.52;4.55;;;;;;;12.52;68.17;102682.72;5273328;28;20020;-64
2022/05/08 08:23:30;;;;;;;14.18;4.10;;;;;;;12.49;67.46;102685.59;5273760;28;20085;-65
2022/05/08 08:26:01;;;;;;;14.88;4.80;;;;;;;12.52;68.94;102688.09;5274966;28;20039;-65
2022/05/08 08:28:33;;;;;;;19.92;5.20;;;;;;;12.65;67.59;102686.44;5276278;28;20319;-64
2022/05/08 08:31:08;;;;;;;16.63;5.10;;;;;;;12.53;65.97;102692.50;5278736;28;20032;-64
2022/05/08 08:33:42;;;;;;;20.38;4.70;;;;;;;12.69;66.99;102689.81;5277391;28;20424;-64
2022/05/08 08:36:14;;;;;;;13.52;5.15;;;;;;;12.71;67.50;102688.81;5279075;28;20509;-64
2022/05/08 08:38:45;;;;;;;16.10;4.93;;;;;;;12.84;68.27;102685.44;5279167;28;20066;-65
2022/05/08 08:41:20;;;;;;;16.70;4.75;;;;;;;12.80;68.40;102679.38;5278616;28;20028;-64
2022/05/08 08:49:53;;;;;;;18.08;4.22;;;;;;;12.95;64.94;102691.03;5276426;28;20033;-64
2022/05/08 08:52:26;;;;;;;15.02;4.38;;;;;;;13.07;63.60;102684.97;5274742;28;20104;-64
2022/05/08 08:54:59;;;;;;;18.80;4.65;;;;;;;12.97;63.23;102689.13;5279144;28;20115;-64
2022/05/08 08:57:30;;;;;;;14.52;4.85;;;;;;;13.04;62.21;102692.31;5276534;28;20032;-64
2022/05/08 09:00:03;;;;;;;19.65;4.45;;;;;;;13.08;58.87;102701.94;5279515;28;20033;-64
2022/05/08 09:02:34;;;;;;;13.30;4.10;;;;;;;13.21;60.47;102686.88;5275904;28;20120;-64
2022/05/08 09:05:08;;;;;;;12.27;3.72;;;;;;;13.27;59.07;102691.88;5276431;28;20474;-64
2022/05/08 09:07:45;;;;;;;12.50;3.95;;;;;;;13.39;60.77;102687.63;5277014;28;20091;-64
2022/05/08 09:10:22;;;;;;;12.70;4.13;;;;;;;13.48;57.70;102689.78;5277332;28;20038;-65
2022/05/08 09:12:53;;;;;;;14.43;4.95;;;;;;;13.56;58.67;102691.13;5271502;28;20024;-64
2022/05/08 09:15:29;;;;;;;24.25;4.75;;;;;;;13.65;57.61;102680.72;5272648;28;20511;-64
2022/05/08 09:18:05;;;;;;;11.50;3.40;;;;;;;13.70;57.52;102692.03;5275499;28;20040;-64
2022/05/08 09:20:40;;;;;;;13.75;4.00;;;;;;;13.85;58.03;102695.59;5278327;28;20078;-64
2022/05/08 09:23:14;;;;;;;14.05;4.35;;;;;;;13.88;57.45;102686.50;5277732;28;20024;-64
2022/05/08 09:25:51;;;;;;;13.32;3.45;;;;;;;14.02;58.01;102683.00;5277851;28;20493;-64
2022/05/08 09:28:30;;;;;;;10.75;3.20;;;;;;;14.15;56.04;102680.38;5273375;28;20125;-64
2022/05/08 09:31:06;;;;;;;14.13;3.67;;;;;;;14.22;56.92;102677.22;5274541;28;20035;-64
2022/05/08 09:33:42;;;;;;;16.73;3.35;;;;;;;14.34;54.15;102675.56;5270525;28;20079;-64
2022/05/08 09:36:21;;;;;;;12.32;3.78;;;;;;;14.36;57.69;102673.66;5277732;28;20051;-64
2022/05/08 09:38:54;;;;;;;12.15;3.50;;;;;;;14.28;56.50;102667.91;5273923;28;20555;-64
2022/05/08 09:41:39;;;;;;;12.43;4.07;;;;;;;14.41;55.47;102676.06;5278059;28;22187;-65
2022/05/08 09:44:13;;;;;;;11.68;3.50;;;;;;;14.48;57.23;102675.59;5274947;28;20474;-64
2022/05/08 09:46:46;;;;;;;15.30;4.28;;;;;;;14.46;57.68;102668.59;5277749;28;20115;-65
2022/05/08 09:49:19;;;;;;;14.80;4.13;;;;;;;14.52;56.58;102677.09;5276247;28;20032;-64
2022/05/08 09:51:53;;;;;;;16.98;3.88;;;;;;;14.55;55.83;102670.66;5277487;28;20055;-65
2022/05/08 09:54:26;;;;;;;12.15;3.67;;;;;;;14.68;56.30;102674.31;5284012;28;20024;-65
2022/05/08 09:56:59;;;;;;;12.43;3.70;;;;;;;14.82;58.16;102672.56;5275108;28;20024;-65
2022/05/08 09:59:30;;;;;;;11.80;4.00;;;;;;;14.80;55.08;102678.03;5276904;28;20030;-65
2022/05/08 10:02:03;;;;;;;11.43;3.65;;;;;;;14.97;55.11;102671.56;5274321;28;20474;-64
2022/05/08 10:04:36;;;;;;;13.95;3.85;;;;;;;14.87;53.81;102670.44;5276550;28;20028;-65
2022/05/08 10:07:08;;;;;;;10.70;3.13;;;;;;;15.10;55.21;102672.47;5278371;28;20024;-65
2022/05/08 10:15:30;;;;;;;15.73;4.40;;;;;;;15.17;53.71;102663.97;5271692;28;20800;-65
2022/05/08 10:18:27;;;;;;;10.95;3.53;;;;;;;15.04;54.59;102662.13;5276793;28;20367;-64
2022/05/08 10:21:12;;;;;;;13.45;4.65;;;;;;;15.08;56.16;102649.34;5275601;28;20546;-65
2022/05/08 10:23:47;;;;;;;10.77;3.75;;;;;;;15.04;52.91;102656.75;5277563;28;20028;-65
2022/05/08 10:26:21;;;;;;;11.85;3.65;;;;;;;15.03;52.14;102655.03;5277391;28;20028;-64
2022/05/08 10:29:01;;;;;;;12.30;3.47;;;;;;;15.04;52.27;102654.06;5273833;28;20067;-65
2022/05/08 10:31:46;;;;;;;11.50;3.10;;;;;;;15.23;52.62;102647.47;5276237;28;20478;-65
2022/05/08 10:34:31;;;;;;;7.18;2.85;;;;;;;15.32;53.27;102652.19;5274639;28;20487;-65
2022/05/08 10:37:11;;;;;;;12.27;3.28;;;;;;;15.39;52.53;102652.66;5276655;28;20114;-65
2022/05/08 10:39:51;;;;;;;11.25;3.60;;;;;;;15.48;52.08;102642.13;5272563;28;20024;-65
2022/05/08 10:42:28;;;;;;;11.00;3.17;;;;;;;15.58;52.87;102636.13;5277963;28;20032;-65
2022/05/08 10:45:00;;;;;;;10.63;3.03;;;;;;;15.60;51.51;102636.88;5274803;28;20028;-65
2022/05/08 10:47:32;;;;;;;14.85;3.75;;;;;;;15.69;51.14;102630.84;5275443;28;20402;-65
2022/05/08 10:50:05;;;;;;;10.75;3.00;;;;;;;15.87;52.03;102636.78;5273929;28;20025;-65
2022/05/08 10:52:44;;;;;;;10.27;3.05;;;;;;;15.86;52.28;102632.41;5277160;28;20036;-65
2022/05/08 10:55:17;;;;;;;8.73;3.40;;;;;;;15.91;50.65;102638.28;5275379;28;20047;-64
2022/05/08 10:57:50;;;;;;;11.55;3.42;;;;;;;15.90;52.13;102633.00;5276695;28;20407;-65
2022/05/08 11:00:23;;;;;;;11.15;3.15;;;;;;;15.97;52.55;102628.94;5275372;28;20039;-65
2022/05/08 11:02:59;;;;;;;9.23;3.03;;;;;;;16.12;50.48;102632.38;5271398;28;20033;-64
2022/05/08 11:05:33;;;;;;;10.32;3.15;;;;;;;16.18;49.91;102632.78;5275021;28;20313;-65
2022/05/08 11:08:10;;;;;;;13.40;3.33;;;;;;;16.26;50.58;102637.59;5276016;28;20131;-65
2022/05/08 11:10:42;;;;;;;11.77;3.65;;;;;;;16.31;49.59;102638.16;5274092;28;20024;-65
2022/05/08 11:13:18;;;;;;;9.52;3.28;;;;;;;16.39;50.54;102626.81;5276286;28;20028;-65
2022/05/08 11:15:50;;;;;;;9.77;3.03;;;;;;;16.36;49.40;102637.84;5273700;28;20085;-65
2022/05/08 11:18:24;;;;;;;8.25;3.28;;;;;;;16.24;49.45;102631.47;5275427;28;20074;-65
2022/05/08 11:21:00;;;;;;;;;;;;;;;16.41;53.30;102630.25;5276026;28;20045;-65
2022/05/08 11:23:33;;;;;;;11.15;3.10;;;;;;;16.53;51.21;102625.78;5272589;28;19986;-64
2022/05/08 11:26:06;;;;;;;7.67;3.53;;;;;;;16.59;48.67;102628.06;5274722;28;20128;-65
2022/05/08 11:28:57;;;;;;;9.77;3.07;;;;;;;16.52;50.26;102629.47;5276972;28;20643;-65
2022/05/08 11:31:28;;;;;;;7.68;2.50;;;;;;;16.51;47.23;102627.75;5274930;28;20024;-65
2022/05/08 11:36:54;;;;;;;10.70;2.90;;;;;;;16.42;48.16;102619.38;5241458;28;20063;-65
2022/05/08 11:39:25;;;;;;;11.98;2.90;;;;;;;16.76;48.96;102618.69;5275301;28;20032;-65
2022/05/08 11:41:57;;;;;;;8.68;3.10;;;;;;;16.46;47.43;102620.88;5275638;28;20089;-65
2022/05/08 11:44:28;;;;;;;8.45;2.60;;;;;;;16.72;48.44;102618.09;5275850;28;20108;-65
2022/05/08 11:47:00;;;;;;;8.70;2.67;;;;;;;16.79;48.97;102615.78;5273674;28;20089;-65
2022/05/08 11:49:32;;;;;;;8.45;2.90;;;;;;;16.74;48.58;102623.34;5273471;28;20028;-65
2022/05/08 11:52:04;;;;;;;8.95;3.13;;;;;;;16.94;48.69;102605.72;5275756;28;20482;-65
2022/05/08 11:54:37;;;;;;;11.43;3.75;;;;;;;16.78;48.65;102604.16;5260981;28;20487;-65
2022/05/08 11:57:12;;;;;;;13.75;3.80;;;;;;;16.83;47.92;102612.78;5275038;28;20035;-65
2022/05/08 11:59:46;;;;;;;9.43;2.78;;;;;;;16.94;48.03;102594.94;5274480;28;20498;-65
2022/05/08 12:02:18;;;;;;;;;;;;;;;16.99;50.29;102601.72;5274870;28;20421;-65
2022/05/08 12:04:54;;;;;;;12.60;3.20;;;;;;;17.17;46.98;102590.50;5271520;28;19916;-65
2022/05/08 12:07:26;;;;;;;10.07;3.20;;;;;;;17.11;46.72;102583.72;5272970;28;20032;-65
2022/05/08 12:09:57;;;;;;;10.32;3.42;;;;;;;17.14;48.43;102582.63;5275542;28;20382;-65
2022/05/08 12:12:37;;;;;;;10.43;3.40;;;;;;;17.15;48.10;102590.59;5275382;28;20033;-65